createdAt,value
2023-04-25T00:00:34.685Z,60.74
2023-04-25T00:01:24.722Z,60.70
2023-04-25T00:02:14.871Z,60.70
2023-04-25T00:03:04.926Z,60.68
2023-04-25T00:03:55.370Z,60.65
2023-04-25T00:04:45.639Z,60.74
2023-04-25T00:05:35.395Z,60.70
2023-04-25T00:06:25.353Z,60.74
2023-04-25T00:07:15.419Z,60.68
2023-04-25T00:08:05.434Z,60.68
2023-04-25T00:08:55.504Z,60.65
2023-04-25T00:09:45.572Z,60.46
2023-04-25T00:10:35.661Z,60.46
2023-04-25T00:11:25.722Z,60.46
2023-04-25T00:12:15.727Z,60.51
2023-04-25T00:13:05.792Z,60.47
2023-04-25T00:13:56.122Z,60.44
2023-04-25T00:14:46.171Z,60.28
2023-04-25T00:15:36.252Z,60.31
2023-04-25T00:16:26.318Z,60.29
2023-04-25T00:17:16.351Z,60.07
2023-04-25T00:18:06.470Z,60.14
2023-04-25T00:18:56.469Z,60.09
2023-04-25T00:19:46.703Z,60.11
2023-04-25T00:20:36.588Z,60.06
2023-04-25T00:21:26.693Z,59.85
2023-04-25T00:22:16.700Z,59.84
2023-04-25T00:23:06.969Z,59.77
2023-04-25T00:23:57.037Z,59.68
2023-04-25T00:24:47.092Z,59.76
2023-04-25T00:25:37.179Z,59.72
2023-04-25T00:26:27.231Z,59.82
2023-04-25T00:27:17.285Z,59.63
2023-04-25T00:28:07.367Z,59.53
2023-04-25T00:28:57.441Z,59.52
2023-04-25T00:29:47.467Z,59.57
2023-04-25T00:30:37.540Z,59.64
2023-04-25T00:31:27.640Z,59.64
2023-04-25T00:32:17.864Z,59.61
2023-04-25T00:33:08.007Z,59.60
2023-04-25T00:33:57.934Z,59.59
2023-04-25T00:34:47.973Z,59.32
2023-04-25T00:35:38.083Z,59.31
2023-04-25T00:36:28.105Z,59.48
2023-04-25T00:37:18.179Z,59.46
2023-04-25T00:38:08.227Z,59.32
2023-04-25T00:38:58.258Z,59.42
2023-04-25T00:39:48.325Z,59.28
2023-04-25T00:40:38.402Z,59.14
2023-04-25T00:41:28.699Z,59.27
2023-04-25T00:42:18.751Z,59.38
2023-04-25T00:43:08.831Z,59.42
2023-04-25T00:43:58.867Z,59.32
2023-04-25T00:44:48.942Z,59.56
2023-04-25T00:45:39.043Z,59.20
2023-04-25T00:46:29.062Z,59.18
2023-04-25T00:47:19.099Z,59.19
2023-04-25T00:48:09.218Z,59.33
2023-04-25T00:48:59.217Z,59.20
2023-04-25T00:49:49.291Z,59.12
2023-04-25T00:50:39.636Z,59.24
2023-04-25T00:51:29.775Z,59.15
2023-04-25T00:52:19.737Z,59.01
2023-04-25T00:53:09.821Z,58.95
2023-04-25T00:53:59.862Z,58.98
2023-04-25T00:54:49.943Z,58.99
2023-04-25T00:55:40.010Z,59.05
2023-04-25T00:56:30.030Z,59.21
2023-04-25T00:57:20.104Z,59.38
2023-04-25T00:58:10.170Z,59.26
2023-04-25T00:59:00.262Z,59.36
2023-04-25T00:59:50.389Z,59.40
2023-04-25T01:00:40.508Z,59.41
2023-04-25T01:01:30.500Z,59.35
2023-04-25T01:02:20.717Z,59.50
2023-04-25T01:03:10.771Z,59.18
2023-04-25T01:04:00.852Z,59.16
2023-04-25T01:04:50.692Z,59.22
2023-04-25T01:05:40.779Z,59.07
2023-04-25T01:06:31.008Z,59.11
2023-04-25T01:07:21.101Z,59.22
2023-04-25T01:08:11.115Z,59.18
2023-04-25T01:09:01.200Z,59.16
2023-04-25T01:09:51.241Z,59.13
2023-04-25T01:10:41.317Z,58.98
2023-04-25T01:11:31.345Z,58.95
2023-04-25T01:12:21.407Z,59.07
2023-04-25T01:13:11.484Z,59.07
2023-04-25T01:14:01.553Z,59.05
2023-04-25T01:14:51.668Z,58.95
2023-04-25T01:15:41.901Z,59.11
2023-04-25T01:16:31.951Z,59.09
2023-04-25T01:17:22.010Z,59.10
2023-04-25T01:18:12.036Z,59.12
2023-04-25T01:19:02.074Z,59.21
2023-04-25T01:19:52.135Z,59.22
2023-04-25T01:20:42.223Z,59.06
2023-04-25T01:21:32.240Z,58.81
2023-04-25T01:22:22.317Z,58.82
2023-04-25T01:23:12.390Z,59.23
2023-04-25T01:24:02.424Z,58.96
2023-04-25T01:24:52.501Z,58.69
2023-04-25T01:25:42.575Z,58.66
2023-04-25T01:26:32.641Z,58.71
2023-04-25T01:27:22.745Z,58.85
2023-04-25T01:28:12.808Z,58.63
2023-04-25T01:30:55.481Z,59.16
2023-04-25T01:31:30.919Z,59.36
2023-04-25T01:32:20.992Z,59.20
2023-04-25T01:33:10.957Z,59.32
2023-04-25T01:34:01.027Z,58.79
2023-04-25T01:34:51.069Z,58.62
2023-04-25T01:35:41.141Z,58.59
2023-04-25T01:36:31.217Z,58.39
2023-04-25T01:37:21.246Z,58.39
2023-04-25T01:38:11.305Z,58.54
2023-04-25T01:39:01.356Z,58.59
2023-04-25T01:39:51.688Z,58.52
2023-04-25T01:40:41.728Z,58.54
2023-04-25T01:41:31.828Z,58.80
2023-04-25T01:42:22.137Z,58.34
2023-04-25T01:43:12.148Z,58.25
2023-04-25T01:44:02.222Z,58.32
2023-04-25T01:44:52.284Z,58.58
2023-04-25T01:45:42.362Z,58.31
2023-04-25T01:46:32.574Z,58.62
2023-04-25T01:47:22.461Z,58.63
2023-04-25T01:48:12.528Z,58.91
2023-04-25T01:49:02.564Z,58.83
2023-04-25T01:49:52.633Z,58.68
2023-04-25T01:50:42.704Z,58.57
2023-04-25T01:51:33.036Z,58.41
2023-04-25T01:52:23.055Z,58.59
2023-04-25T01:53:13.169Z,58.28
2023-04-25T01:54:03.199Z,58.02
2023-04-25T01:54:53.244Z,57.93
2023-04-25T01:55:43.328Z,58.45
2023-04-25T01:56:33.382Z,58.42
2023-04-25T01:57:23.406Z,58.43
2023-04-25T01:58:13.481Z,57.99
2023-04-25T01:59:03.553Z,57.89
2023-04-25T01:59:53.605Z,57.87
2023-04-25T02:00:43.641Z,57.97
2023-04-25T02:01:33.819Z,58.13
2023-04-25T02:02:24.625Z,58.04
2023-04-25T02:03:13.884Z,58.16
2023-04-25T02:04:04.089Z,58.16
2023-04-25T02:04:53.885Z,58.26
2023-04-25T02:05:43.993Z,58.09
2023-04-25T02:06:34.025Z,58.01
2023-04-25T02:07:24.317Z,57.97
2023-04-25T02:08:14.342Z,58.22
2023-04-25T02:09:04.414Z,58.10
2023-04-25T02:13:10.713Z,58.69
2023-04-25T02:14:00.752Z,58.24
2023-04-25T02:14:50.809Z,58.21
2023-04-25T02:15:40.883Z,57.97
2023-04-25T02:16:30.974Z,58.15
2023-04-25T02:17:20.994Z,57.82
2023-04-25T02:18:11.284Z,57.92
2023-04-25T02:19:01.295Z,57.80
2023-04-25T02:19:51.375Z,57.89
2023-04-25T02:20:41.426Z,57.59
2023-04-25T02:21:31.507Z,57.52
2023-04-25T02:22:21.616Z,57.40
2023-04-25T02:23:11.634Z,57.40
2023-04-25T02:24:01.686Z,57.29
2023-04-25T02:24:51.792Z,57.46
2023-04-25T02:25:41.826Z,57.34
2023-04-25T02:26:31.897Z,57.69
2023-04-25T02:27:22.231Z,57.02
2023-04-25T02:28:12.254Z,56.87
2023-04-25T02:29:02.348Z,57.59
2023-04-25T02:29:52.411Z,57.18
2023-04-25T02:30:42.453Z,57.47
2023-04-25T02:31:32.574Z,57.23
2023-04-25T02:32:22.646Z,56.83
2023-04-25T02:33:12.631Z,57.16
2023-04-25T02:34:02.695Z,57.30
2023-04-25T02:34:52.759Z,57.16
2023-04-25T02:35:42.812Z,57.69
2023-04-25T02:36:33.172Z,57.19
2023-04-25T02:37:23.176Z,57.15
2023-04-25T02:38:13.194Z,56.69
2023-04-25T02:39:03.262Z,57.08
2023-04-25T02:39:53.306Z,57.45
2023-04-25T02:40:43.367Z,57.13
2023-04-25T02:41:33.444Z,56.91
2023-04-25T02:42:23.486Z,57.41
2023-04-25T02:43:13.505Z,57.52
2023-04-25T02:44:03.573Z,57.25
2023-04-25T02:44:53.665Z,57.28
2023-04-25T02:45:43.708Z,57.12
2023-04-25T02:46:39.350Z,57.16
2023-04-25T02:47:30.162Z,56.86
2023-04-25T02:48:13.929Z,57.27
2023-04-25T02:49:03.921Z,57.11
2023-04-25T02:49:53.996Z,57.64
2023-04-25T02:50:44.055Z,57.50
2023-04-25T02:51:34.410Z,56.70
2023-04-25T02:52:24.458Z,57.38
2023-04-25T02:53:14.539Z,56.77
2023-04-25T02:54:04.812Z,56.84
2023-04-25T02:54:54.921Z,56.88
2023-04-25T02:55:44.912Z,57.06
2023-04-25T02:56:34.986Z,57.14
2023-04-25T02:57:25.038Z,56.74
2023-04-25T02:58:15.130Z,56.84
2023-04-25T02:59:05.147Z,56.85
2023-04-25T02:59:55.224Z,57.15
2023-04-25T03:00:45.315Z,57.03
2023-04-25T03:01:35.309Z,56.62
2023-04-25T03:02:25.562Z,57.04
2023-04-25T03:03:15.794Z,56.88
2023-04-25T03:04:05.724Z,56.74
2023-04-25T03:04:55.781Z,57.05
2023-04-25T03:05:45.797Z,56.80
2023-04-25T03:06:35.866Z,56.81
2023-04-25T03:07:25.938Z,56.96
2023-04-25T03:08:16.011Z,56.69
2023-04-25T03:09:06.065Z,56.88
2023-04-25T03:09:56.128Z,56.83
2023-04-25T03:10:46.164Z,56.69
2023-04-25T03:11:36.229Z,56.78
2023-04-25T03:15:47.098Z,57.63
2023-04-25T03:16:38.193Z,58.00
2023-04-25T03:20:39.547Z,58.02
2023-04-25T03:26:51.187Z,57.47
2023-04-25T03:27:46.274Z,57.86
2023-04-25T03:28:04.690Z,58.19
2023-04-25T03:29:20.694Z,57.45
2023-04-25T03:31:21.785Z,57.35
2023-04-25T03:32:19.592Z,57.75
2023-04-25T03:35:08.512Z,57.42
2023-04-25T03:37:37.485Z,57.64
2023-04-25T03:38:01.496Z,57.96
2023-04-25T03:40:30.667Z,57.12
2023-04-25T03:41:26.595Z,56.40
2023-04-25T03:43:48.129Z,58.09
2023-04-25T03:46:21.022Z,57.10
2023-04-25T03:47:06.283Z,57.18
2023-04-25T03:47:56.514Z,56.93
2023-04-25T03:48:46.554Z,57.10
2023-04-25T03:49:36.577Z,56.77
2023-04-25T03:50:26.664Z,56.54
2023-04-25T03:51:16.678Z,56.07
2023-04-25T03:52:06.778Z,56.53
2023-04-25T03:52:56.795Z,56.85
2023-04-25T03:53:46.880Z,57.03
2023-04-25T03:54:36.903Z,55.95
2023-04-25T03:55:26.985Z,56.16
2023-04-25T03:56:17.030Z,56.03
2023-04-25T03:57:07.923Z,56.12
2023-04-25T03:57:57.140Z,56.14
2023-04-25T03:58:47.237Z,55.72
2023-04-25T03:59:37.246Z,56.05
2023-04-25T04:00:27.318Z,55.82
2023-04-25T04:01:17.392Z,56.09
2023-04-25T04:02:07.487Z,55.92
2023-04-25T04:02:57.544Z,55.94
2023-04-25T04:03:47.681Z,55.66
2023-04-25T04:04:37.993Z,55.68
2023-04-25T04:05:27.975Z,55.78
2023-04-25T04:06:17.901Z,55.98
2023-04-25T04:07:07.983Z,55.78
2023-04-25T04:07:58.033Z,55.73
2023-04-25T04:08:48.130Z,55.85
2023-04-25T04:09:38.157Z,56.26
2023-04-25T04:10:28.221Z,55.83
2023-04-25T04:11:18.251Z,55.80
2023-04-25T04:12:08.335Z,55.79
2023-04-25T04:12:58.360Z,56.03
2023-04-25T04:13:48.989Z,55.68
2023-04-25T04:14:38.744Z,55.40
2023-04-25T04:15:28.807Z,55.46
2023-04-25T04:16:19.119Z,55.40
2023-04-25T04:17:09.158Z,55.51
2023-04-25T04:17:59.229Z,55.49
2023-04-25T04:18:49.282Z,55.62
2023-04-25T04:19:39.348Z,55.57
2023-04-25T04:20:29.384Z,55.49
2023-04-25T04:21:19.400Z,55.88
2023-04-25T04:22:09.474Z,55.54
2023-04-25T04:22:59.544Z,55.53
2023-04-25T04:23:49.803Z,55.40
2023-04-25T04:24:39.656Z,55.17
2023-04-25T04:25:29.724Z,55.18
2023-04-25T04:26:19.763Z,55.44
2023-04-25T04:27:09.829Z,54.94
2023-04-25T04:27:59.900Z,55.00
2023-04-25T04:28:49.987Z,55.36
2023-04-25T04:29:40.020Z,55.25
2023-04-25T04:30:30.104Z,55.37
2023-04-25T04:31:20.187Z,55.28
2023-04-25T04:32:10.183Z,55.17
2023-04-25T04:33:00.315Z,55.05
2023-04-25T04:33:50.552Z,55.16
2023-04-25T04:34:40.340Z,55.09
2023-04-25T04:35:30.434Z,55.57
2023-04-25T04:36:20.475Z,55.02
2023-04-25T04:37:10.559Z,55.08
2023-04-25T04:38:00.598Z,55.33
2023-04-25T04:38:50.908Z,55.87
2023-04-25T04:39:40.916Z,56.16
2023-04-25T04:40:30.983Z,55.20
2023-04-25T04:41:21.050Z,54.92
2023-04-25T04:42:11.138Z,55.43
2023-04-25T04:43:01.173Z,55.43
2023-04-25T04:43:51.586Z,55.26
2023-04-25T04:44:41.244Z,55.12
2023-04-25T04:45:31.309Z,54.97
2023-04-25T04:46:21.368Z,55.01
2023-04-25T04:47:11.349Z,55.28
2023-04-25T04:48:01.472Z,55.70
2023-04-25T04:48:51.526Z,55.26
2023-04-25T04:49:41.533Z,55.04
2023-04-25T04:50:31.603Z,54.88
2023-04-25T04:51:21.653Z,54.69
2023-04-25T04:52:11.920Z,55.37
2023-04-25T04:53:01.996Z,54.86
2023-04-25T04:53:52.692Z,55.00
2023-04-25T04:54:42.363Z,54.74
2023-04-25T04:55:32.416Z,54.74
2023-04-25T04:56:22.478Z,54.66
2023-04-25T04:57:12.807Z,54.91
2023-04-25T04:58:02.866Z,55.12
2023-04-25T04:58:52.954Z,54.70
2023-04-25T04:59:43.234Z,54.64
2023-04-25T05:00:33.337Z,54.64
2023-04-25T05:01:23.489Z,54.56
2023-04-25T05:02:13.494Z,55.72
2023-04-25T05:03:03.626Z,54.89
2023-04-25T05:03:53.858Z,54.81
2023-04-25T05:04:43.628Z,54.33
2023-04-25T05:05:33.681Z,55.54
2023-04-25T05:06:23.764Z,54.90
2023-04-25T05:07:13.813Z,54.99
2023-04-25T05:08:03.885Z,54.64
2023-04-25T05:08:54.148Z,54.82
2023-04-25T05:09:44.199Z,54.43
2023-04-25T05:10:34.234Z,54.28
2023-04-25T05:11:24.293Z,54.58
2023-04-25T05:12:14.388Z,54.79
2023-04-25T05:13:04.436Z,54.78
2023-04-25T05:13:54.535Z,54.34
2023-04-25T05:14:44.657Z,54.36
2023-04-25T05:15:34.598Z,54.33
2023-04-25T05:16:24.652Z,54.54
2023-04-25T05:17:14.696Z,54.70
2023-04-25T05:18:05.151Z,54.58
2023-04-25T05:18:55.053Z,54.68
2023-04-25T05:19:45.079Z,54.49
2023-04-25T05:20:35.164Z,54.61
2023-04-25T05:21:25.197Z,54.28
2023-04-25T05:22:15.296Z,54.70
2023-04-25T05:23:05.306Z,54.37
2023-04-25T05:23:55.424Z,54.94
2023-04-25T05:24:45.416Z,54.76
2023-04-25T05:25:35.495Z,54.57
2023-04-25T05:26:25.563Z,54.76
2023-04-25T05:27:15.881Z,55.00
2023-04-25T05:28:05.961Z,54.42
2023-04-25T05:28:56.053Z,54.54
2023-04-25T05:29:46.330Z,54.76
2023-04-25T05:30:36.406Z,55.28
2023-04-25T05:31:26.515Z,54.98
2023-04-25T05:32:16.859Z,54.41
2023-04-25T05:33:06.933Z,54.41
2023-04-25T05:33:56.907Z,54.23
2023-04-25T05:34:46.997Z,54.73
2023-04-25T05:35:37.007Z,54.79
2023-04-25T05:36:27.048Z,54.94
2023-04-25T05:37:17.121Z,54.78
2023-04-25T05:38:07.166Z,55.29
2023-04-25T05:38:57.231Z,55.44
2023-04-25T05:39:47.256Z,55.24
2023-04-25T05:40:37.328Z,55.67
2023-04-25T05:41:27.387Z,56.03
2023-04-25T05:42:17.469Z,56.23
2023-04-25T05:43:07.508Z,56.27
2023-04-25T05:43:58.360Z,55.88
2023-04-25T05:44:47.622Z,55.11
2023-04-25T05:45:37.707Z,55.25
2023-04-25T05:46:27.747Z,55.84
2023-04-25T05:47:17.815Z,56.24
2023-04-25T05:48:07.979Z,55.58
2023-04-25T05:48:57.954Z,55.91
2023-04-25T05:49:48.131Z,56.14
2023-04-25T05:50:38.221Z,56.36
2023-04-25T05:51:28.231Z,55.27
2023-04-25T05:52:18.302Z,55.53
2023-04-25T05:53:08.405Z,55.90
2023-04-25T05:53:58.458Z,55.80
2023-04-25T05:54:48.484Z,56.12
2023-04-25T05:55:38.555Z,56.76
2023-04-25T05:56:28.580Z,56.12
2023-04-25T05:57:18.651Z,55.55
2023-04-25T05:58:08.715Z,55.06
2023-04-25T05:58:58.791Z,55.22
2023-04-25T05:59:48.812Z,55.40
2023-04-25T06:00:38.891Z,55.98
2023-04-25T06:01:28.912Z,55.59
2023-04-25T06:02:19.111Z,55.34
2023-04-25T06:03:09.288Z,55.28
2023-04-25T06:03:59.517Z,55.49
2023-04-25T06:04:49.352Z,55.28
2023-04-25T06:05:39.259Z,55.24
2023-04-25T06:06:29.225Z,55.26
2023-04-25T06:07:19.307Z,55.15
2023-04-25T06:08:09.390Z,55.37
2023-04-25T06:08:59.491Z,55.75
2023-04-25T06:09:49.499Z,55.99
2023-04-25T06:10:39.607Z,55.44
2023-04-25T06:11:29.634Z,55.45
2023-04-25T06:12:19.976Z,55.61
2023-04-25T06:13:10.030Z,55.89
2023-04-25T06:14:00.141Z,56.32
2023-04-25T06:14:50.429Z,56.03
2023-04-25T06:15:40.557Z,55.71
2023-04-25T06:16:30.599Z,55.43
2023-04-25T06:17:20.628Z,55.34
2023-04-25T06:18:10.633Z,55.45
2023-04-25T06:19:00.729Z,55.62
2023-04-25T06:19:50.760Z,55.83
2023-04-25T06:20:40.836Z,55.63
2023-04-25T06:21:30.868Z,55.30
2023-04-25T06:22:20.921Z,55.51
2023-04-25T06:23:10.996Z,55.39
2023-04-25T06:24:01.335Z,55.22
2023-04-25T06:24:51.347Z,55.73
2023-04-25T06:25:41.411Z,55.35
2023-04-25T06:26:31.466Z,55.84
2023-04-25T06:27:21.564Z,55.29
2023-04-25T06:28:11.578Z,55.26
2023-04-25T06:29:01.675Z,55.09
2023-04-25T06:29:51.688Z,55.21
2023-04-25T06:30:41.764Z,55.13
2023-04-25T06:31:31.894Z,55.18
2023-04-25T06:32:21.931Z,55.18
2023-04-25T06:33:12.210Z,55.06
2023-04-25T06:34:02.292Z,55.88
2023-04-25T06:34:52.315Z,55.23
2023-04-25T06:35:42.643Z,55.14
2023-04-25T06:36:32.716Z,55.01
2023-04-25T06:37:22.768Z,55.09
2023-04-25T06:38:12.795Z,55.57
2023-04-25T06:39:02.909Z,55.57
2023-04-25T06:39:52.908Z,55.42
2023-04-25T06:40:42.976Z,55.44
2023-04-25T06:41:32.982Z,55.49
2023-04-25T06:42:23.056Z,55.18
2023-04-25T06:43:13.117Z,55.38
2023-04-25T06:44:03.205Z,55.18
2023-04-25T06:44:53.494Z,55.42
2023-04-25T06:45:44.441Z,55.76
2023-04-25T06:46:33.833Z,55.56
2023-04-25T06:47:23.896Z,55.69
2023-04-25T06:48:13.911Z,55.42
2023-04-25T06:49:04.251Z,55.63
2023-04-25T06:49:54.303Z,55.85
2023-04-25T06:50:44.328Z,55.59
2023-04-25T06:51:34.347Z,55.64
2023-04-25T06:52:24.425Z,55.76
2023-04-25T06:53:14.452Z,56.05
2023-04-25T06:54:04.555Z,55.64
2023-04-25T06:54:54.615Z,55.54
2023-04-25T06:55:44.666Z,56.14
2023-04-25T06:56:34.712Z,55.91
2023-04-25T06:57:24.753Z,55.57
2023-04-25T06:58:14.794Z,55.49
2023-04-25T06:59:04.900Z,55.69
2023-04-25T06:59:54.909Z,55.60
2023-04-25T07:00:45.011Z,55.82
2023-04-25T07:01:35.048Z,55.69
2023-04-25T07:02:25.259Z,55.93
2023-04-25T07:03:15.341Z,55.80
2023-04-25T07:04:05.419Z,55.93
2023-04-25T07:04:55.640Z,55.99
2023-04-25T07:05:45.628Z,54.70
2023-04-25T07:06:35.628Z,55.25
2023-04-25T07:07:25.679Z,55.27
2023-04-25T07:08:15.716Z,55.07
2023-04-25T07:09:05.800Z,55.36
2023-04-25T07:09:55.824Z,55.65
2023-04-25T07:10:47.765Z,55.92
2023-04-25T07:11:35.906Z,56.59
2023-04-25T07:12:26.000Z,56.03
2023-04-25T07:13:16.027Z,55.73
2023-04-25T07:14:06.128Z,55.98
2023-04-25T07:14:56.316Z,55.86
2023-04-25T07:15:46.400Z,55.77
2023-04-25T07:16:36.477Z,55.65
2023-04-25T07:17:26.487Z,55.66
2023-04-25T07:18:16.543Z,55.66
2023-04-25T07:19:06.648Z,55.87
2023-04-25T07:19:56.679Z,55.93
2023-04-25T07:20:46.760Z,55.92
2023-04-25T07:21:36.802Z,56.53
2023-04-25T07:22:26.967Z,55.90
2023-04-25T07:23:16.903Z,55.78
2023-04-25T07:24:06.962Z,56.21
2023-04-25T07:24:56.996Z,56.42
2023-04-25T07:25:47.038Z,56.34
2023-04-25T07:26:37.080Z,55.71
2023-04-25T07:27:27.202Z,55.73
2023-04-25T07:28:19.370Z,56.02
2023-04-25T07:29:07.322Z,54.59
2023-04-25T07:29:57.355Z,55.67
2023-04-25T07:30:47.382Z,55.51
2023-04-25T07:31:37.500Z,55.58
2023-04-25T07:32:27.546Z,55.89
2023-04-25T07:33:17.562Z,55.85
2023-04-25T07:34:07.655Z,55.88
2023-04-25T07:34:57.659Z,55.83
2023-04-25T07:35:47.752Z,55.46
2023-04-25T07:36:37.822Z,55.19
2023-04-25T07:37:28.132Z,55.62
2023-04-25T07:38:18.176Z,55.49
2023-04-25T07:39:08.254Z,55.65
2023-04-25T07:39:58.307Z,55.44
2023-04-25T07:40:48.363Z,55.86
2023-04-25T07:41:38.414Z,56.31
2023-04-25T07:42:28.474Z,55.63
2023-04-25T07:43:18.479Z,55.99
2023-04-25T07:44:08.574Z,56.51
2023-04-25T07:44:58.614Z,57.72
2023-04-25T07:45:48.702Z,56.55
2023-04-25T07:46:38.719Z,56.45
2023-04-25T07:47:28.827Z,56.36
2023-04-25T07:48:18.828Z,55.84
2023-04-25T07:49:08.899Z,56.32
2023-04-25T07:49:58.943Z,55.47
2023-04-25T07:50:48.984Z,55.11
2023-04-25T07:51:39.053Z,54.99
2023-04-25T07:52:29.121Z,55.67
2023-04-25T07:53:19.750Z,56.95
2023-04-25T07:54:09.531Z,56.33
2023-04-25T07:54:59.580Z,54.84
2023-04-25T07:55:49.622Z,55.86
2023-04-25T07:56:49.546Z,55.19
2023-04-25T07:57:30.757Z,55.74
2023-04-25T07:58:19.780Z,56.31
2023-04-25T07:59:09.858Z,55.71
2023-04-25T07:59:59.895Z,55.59
2023-04-25T08:00:49.934Z,56.24
2023-04-25T08:01:39.988Z,56.33
2023-04-25T08:02:30.096Z,56.07
2023-04-25T08:03:20.435Z,55.58
2023-04-25T08:04:10.481Z,54.80
2023-04-25T08:05:00.596Z,54.79
2023-04-25T08:05:50.683Z,55.21
2023-04-25T08:06:40.566Z,55.62
2023-04-25T08:07:30.575Z,54.65
2023-04-25T08:08:20.654Z,54.60
2023-04-25T08:09:10.728Z,54.47
2023-04-25T08:10:00.756Z,55.62
2023-04-25T08:10:50.766Z,55.37
2023-04-25T08:11:40.851Z,55.49
2023-04-25T08:12:30.887Z,55.06
2023-04-25T08:13:20.948Z,54.33
2023-04-25T08:14:10.970Z,54.34
2023-04-25T08:15:00.999Z,55.06
2023-04-25T08:15:51.084Z,54.67
2023-04-25T08:16:41.147Z,54.44
2023-04-25T08:17:31.194Z,55.14
2023-04-25T08:18:21.294Z,55.44
2023-04-25T08:19:11.270Z,56.16
2023-04-25T08:20:01.314Z,54.95
2023-04-25T08:20:51.384Z,54.70
2023-04-25T08:21:41.469Z,56.25
2023-04-25T08:22:31.526Z,54.87
2023-04-25T08:23:21.570Z,53.59
2023-04-25T08:24:11.626Z,53.17
2023-04-25T08:25:01.668Z,53.97
2023-04-25T08:25:51.689Z,54.25
2023-04-25T08:26:41.734Z,55.11
2023-04-25T08:27:31.808Z,54.30
2023-04-25T08:28:21.851Z,54.10
2023-04-25T08:29:11.926Z,54.75
2023-04-25T08:30:01.917Z,56.52
2023-04-25T08:30:51.986Z,55.43
2023-04-25T08:31:42.104Z,54.02
2023-04-25T08:32:32.123Z,54.72
2023-04-25T08:33:22.208Z,55.73
2023-04-25T08:34:12.190Z,55.66
2023-04-25T08:35:02.221Z,55.17
2023-04-25T08:35:52.294Z,56.38
2023-04-25T08:36:42.597Z,56.85
2023-04-25T08:37:32.631Z,56.66
2023-04-25T08:38:22.706Z,56.12
2023-04-25T08:39:12.755Z,56.54
2023-04-25T08:40:02.789Z,56.09
2023-04-25T08:40:52.853Z,56.54
2023-04-25T08:41:42.915Z,56.27
2023-04-25T08:42:32.984Z,56.14
2023-04-25T08:43:23.057Z,56.45
2023-04-25T08:44:13.134Z,56.31
2023-04-25T08:45:05.442Z,56.07
2023-04-25T08:45:53.184Z,55.57
2023-04-25T08:46:43.271Z,55.67
2023-04-25T08:47:33.354Z,55.71
2023-04-25T08:48:23.397Z,55.30
2023-04-25T08:49:13.442Z,55.97
2023-04-25T08:50:03.470Z,56.58
2023-04-25T08:50:53.541Z,55.80
2023-04-25T08:51:43.614Z,55.66
2023-04-25T08:52:33.679Z,56.13
2023-04-25T08:53:23.983Z,56.80
2023-04-25T08:54:27.278Z,55.63
2023-04-25T08:55:05.089Z,54.61
2023-04-25T08:55:54.106Z,54.22
2023-04-25T08:56:44.165Z,55.48
2023-04-25T08:57:34.240Z,55.20
2023-04-25T08:58:24.315Z,55.69
2023-04-25T08:59:14.387Z,55.75
2023-04-25T09:00:04.432Z,57.29
2023-04-25T09:00:54.610Z,56.57
2023-04-25T09:01:44.674Z,54.75
2023-04-25T09:02:34.871Z,54.25
2023-04-25T09:03:25.332Z,54.77
2023-04-25T09:04:15.493Z,55.86
2023-04-25T09:05:05.142Z,55.39
2023-04-25T09:05:55.223Z,55.49
2023-04-25T09:06:45.246Z,55.74
2023-04-25T09:07:35.365Z,56.36
2023-04-25T09:08:25.365Z,54.59
2023-04-25T09:09:15.456Z,55.00
2023-04-25T09:10:05.522Z,54.38
2023-04-25T09:10:55.528Z,54.70
2023-04-25T09:11:45.610Z,55.67
2023-04-25T09:12:35.946Z,54.88
2023-04-25T09:13:25.966Z,55.07
2023-04-25T09:14:16.068Z,54.58
2023-04-25T09:15:06.081Z,54.62
2023-04-25T09:15:56.210Z,53.63
2023-04-25T09:16:46.212Z,53.86
2023-04-25T09:17:36.497Z,54.63
2023-04-25T09:18:29.856Z,55.63
2023-04-25T09:19:16.390Z,53.50
2023-04-25T09:20:06.413Z,53.04
2023-04-25T09:21:01.861Z,53.51
2023-04-25T09:21:48.484Z,53.75
2023-04-25T09:22:36.626Z,53.45
2023-04-25T09:23:26.632Z,53.13
2023-04-25T09:24:16.722Z,54.04
2023-04-25T09:25:06.752Z,53.48
2023-04-25T09:25:56.835Z,53.06
2023-04-25T09:26:46.906Z,52.66
2023-04-25T09:27:36.941Z,53.06
2023-04-25T09:28:28.447Z,54.04
2023-04-25T09:29:17.057Z,55.00
2023-04-25T09:30:07.088Z,53.88
2023-04-25T09:30:57.194Z,54.42
2023-04-25T09:31:47.200Z,54.20
2023-04-25T09:32:37.274Z,54.40
2023-04-25T09:33:27.289Z,53.56
2023-04-25T09:34:17.407Z,52.84
2023-04-25T09:35:07.427Z,53.21
2023-04-25T09:35:57.515Z,53.94
2023-04-25T09:36:47.566Z,55.67
2023-04-25T09:37:37.565Z,54.90
2023-04-25T09:38:27.619Z,54.14
2023-04-25T09:39:17.654Z,54.56
2023-04-25T09:40:07.679Z,53.95
2023-04-25T09:40:57.757Z,53.91
2023-04-25T09:41:47.824Z,53.41
2023-04-25T09:42:37.865Z,53.38
2023-04-25T09:43:27.932Z,52.59
2023-04-25T09:44:18.028Z,53.74
2023-04-25T09:45:08.239Z,53.28
2023-04-25T09:45:58.888Z,52.93
2023-04-25T09:46:48.145Z,52.86
2023-04-25T09:47:38.358Z,52.96
2023-04-25T09:48:28.277Z,54.17
2023-04-25T09:49:18.379Z,55.28
2023-04-25T09:50:08.391Z,54.31
2023-04-25T09:50:58.477Z,54.00
2023-04-25T09:51:48.508Z,53.50
2023-04-25T09:52:38.586Z,54.21
2023-04-25T09:53:28.626Z,54.10
2023-04-25T09:54:18.727Z,54.26
2023-04-25T09:55:09.012Z,54.06
2023-04-25T09:55:59.092Z,54.47
2023-04-25T09:56:49.119Z,54.14
2023-04-25T09:57:39.166Z,53.51
2023-04-25T09:58:30.691Z,54.82
2023-04-25T09:59:19.303Z,55.39
2023-04-25T10:00:09.345Z,54.06
2023-04-25T10:00:59.396Z,54.32
2023-04-25T10:01:49.528Z,53.62
2023-04-25T10:02:39.658Z,54.96
2023-04-25T10:03:29.676Z,54.91
2023-04-25T10:04:19.714Z,53.10
2023-04-25T10:05:09.790Z,54.26
2023-04-25T10:05:59.728Z,54.65
2023-04-25T10:06:49.790Z,52.03
2023-04-25T10:07:39.840Z,52.49
2023-04-25T10:08:29.906Z,51.16
2023-04-25T10:09:20.068Z,53.07
2023-04-25T10:10:10.094Z,51.81
2023-04-25T10:11:00.163Z,51.50
2023-04-25T10:11:50.489Z,50.51
2023-04-25T10:12:40.568Z,50.50
2023-04-25T10:13:30.597Z,50.64
2023-04-25T10:14:20.688Z,52.27
2023-04-25T10:15:10.724Z,53.23
2023-04-25T10:16:00.774Z,52.65
2023-04-25T10:16:50.798Z,52.80
2023-04-25T10:17:40.885Z,51.54
2023-04-25T10:18:30.928Z,52.97
2023-04-25T10:19:21.041Z,52.18
2023-04-25T10:20:11.048Z,51.59
2023-04-25T10:21:01.389Z,53.33
2023-04-25T10:21:51.452Z,51.95
2023-04-25T10:22:41.526Z,52.56
2023-04-25T10:23:31.573Z,52.67
2023-04-25T10:24:21.618Z,52.10
2023-04-25T10:25:11.659Z,51.12
2023-04-25T10:26:01.697Z,52.45
2023-04-25T10:26:51.722Z,53.14
2023-04-25T10:27:41.804Z,53.55
2023-04-25T10:28:31.833Z,53.68
2023-04-25T10:29:21.924Z,53.33
2023-04-25T10:30:11.953Z,51.28
2023-04-25T10:31:02.144Z,51.32
2023-04-25T10:31:52.100Z,52.01
2023-04-25T10:32:42.161Z,51.80
2023-04-25T10:33:32.171Z,53.90
2023-04-25T10:34:22.246Z,55.41
2023-04-25T10:35:12.348Z,55.37
2023-04-25T10:36:02.346Z,55.26
2023-04-25T10:36:52.414Z,55.52
2023-04-25T10:37:42.490Z,54.81
2023-04-25T10:38:32.517Z,55.18
2023-04-25T10:39:22.665Z,54.38
2023-04-25T10:40:12.650Z,55.00
2023-04-25T10:41:02.716Z,53.95
2023-04-25T10:41:52.745Z,53.91
2023-04-25T10:42:42.827Z,54.48
2023-04-25T10:43:33.116Z,53.96
2023-04-25T10:44:23.211Z,54.21
2023-04-25T10:45:13.247Z,54.57
2023-04-25T10:46:03.563Z,53.86
2023-04-25T10:46:53.637Z,53.70
2023-04-25T10:47:43.713Z,54.93
2023-04-25T10:48:33.706Z,54.94
2023-04-25T10:49:23.822Z,54.42
2023-04-25T10:50:13.840Z,53.86
2023-04-25T10:51:03.944Z,54.14
2023-04-25T10:51:55.653Z,54.17
2023-04-25T10:52:44.030Z,52.96
2023-04-25T10:53:34.085Z,52.33
2023-04-25T10:54:24.182Z,52.01
2023-04-25T10:55:14.217Z,52.57
2023-04-25T10:56:04.255Z,53.03
2023-04-25T10:56:54.354Z,54.91
2023-04-25T10:57:44.378Z,54.39
2023-04-25T10:58:34.402Z,54.82
2023-04-25T10:59:24.469Z,54.09
2023-04-25T11:00:14.613Z,53.68
2023-04-25T11:01:04.586Z,53.71
2023-04-25T11:01:54.729Z,53.90
2023-04-25T11:02:44.795Z,54.17
2023-04-25T11:03:34.867Z,54.18
2023-04-25T11:04:25.167Z,54.56
2023-04-25T11:05:14.898Z,54.76
2023-04-25T11:06:04.961Z,54.75
2023-04-25T11:06:58.240Z,54.86
2023-04-25T11:07:52.901Z,54.91
2023-04-25T11:08:36.176Z,54.70
2023-04-25T11:09:25.237Z,54.04
2023-04-25T11:10:15.253Z,54.02
2023-04-25T11:11:05.326Z,54.98